createdAt,value
2018-11-25T00:00:16.618Z,5.60
2018-11-25T00:02:48.442Z,5.50
2018-11-25T00:05:19.785Z,5.50
2018-11-25T00:07:48.227Z,5.40
2018-11-25T00:10:17.595Z,5.40
2018-11-25T00:12:46.049Z,5.50
2018-11-25T00:15:14.555Z,5.50
2018-11-25T00:17:42.979Z,5.40
2018-11-25T00:20:13.997Z,5.40
2018-11-25T00:22:42.939Z,5.40
2018-11-25T00:25:12.347Z,5.40
2018-11-25T00:27:40.768Z,5.40
2018-11-25T00:30:12.954Z,5.30
2018-11-25T00:32:42.577Z,5.30
2018-11-25T00:35:12.446Z,5.20
2018-11-25T00:37:47.923Z,5.10
2018-11-25T00:40:12.240Z,5.10
2018-11-25T00:42:40.817Z,5.00
2018-11-25T00:45:11.003Z,4.90
2018-11-25T00:47:39.446Z,4.90
2018-11-25T00:50:09.903Z,4.90
2018-11-25T00:52:38.309Z,5.00
2018-11-25T00:55:09.760Z,5.10
2018-11-25T00:57:38.240Z,5.10
2018-11-25T01:00:11.026Z,5.10
2018-11-25T01:02:45.734Z,5.00
2018-11-25T01:05:14.203Z,5.10
2018-11-25T01:07:42.727Z,5.10
2018-11-25T01:10:12.554Z,5.10
2018-11-25T01:12:40.954Z,5.10
2018-11-25T01:15:11.355Z,5.20
2018-11-25T01:17:39.824Z,5.30
2018-11-25T01:20:18.160Z,5.20
2018-11-25T01:22:46.683Z,5.20
2018-11-25T01:25:15.194Z,5.20
2018-11-25T01:27:43.645Z,5.10
2018-11-25T01:30:16.770Z,5.10
2018-11-25T01:32:45.608Z,5.00
2018-11-25T01:35:14.543Z,4.90
2018-11-25T01:37:43.310Z,4.90
2018-11-25T01:40:13.858Z,4.90
2018-11-25T01:42:42.343Z,5.10
2018-11-25T01:45:12.933Z,5.10
2018-11-25T01:47:41.442Z,5.10
2018-11-25T01:50:11.535Z,5.10
2018-11-25T01:52:39.954Z,5.10
2018-11-25T01:55:17.940Z,5.10
2018-11-25T01:57:46.514Z,5.00
2018-11-25T02:00:16.133Z,5.00
2018-11-25T02:02:44.605Z,5.00
2018-11-25T02:05:14.061Z,5.10
2018-11-25T02:07:42.517Z,5.10
2018-11-25T02:10:16.186Z,5.10
2018-11-25T02:12:44.703Z,5.10
2018-11-25T02:15:14.370Z,5.00
2018-11-25T02:17:42.945Z,5.00
2018-11-25T02:20:13.958Z,5.10
2018-11-25T02:22:42.451Z,5.10
2018-11-25T02:25:10.891Z,5.10
2018-11-25T02:27:39.354Z,5.20
2018-11-25T02:30:11.218Z,5.20
2018-11-25T02:32:39.683Z,5.10
2018-11-25T02:35:09.733Z,5.10
2018-11-25T02:37:38.321Z,5.00
2018-11-25T02:40:09.178Z,5.10
2018-11-25T02:42:37.590Z,5.00
2018-11-25T02:45:09.911Z,5.00
2018-11-25T02:47:38.397Z,5.00
2018-11-25T02:50:13.743Z,5.00
2018-11-25T02:52:42.187Z,4.90
2018-11-25T02:55:16.430Z,4.90
2018-11-25T02:57:44.874Z,4.90
2018-11-25T03:00:13.338Z,4.80
2018-11-25T03:02:41.790Z,4.80
2018-11-25T03:05:10.246Z,4.80
2018-11-25T03:07:38.698Z,4.70
2018-11-25T03:10:07.706Z,4.60
2018-11-25T03:12:36.134Z,4.60
2018-11-25T03:15:08.008Z,4.60
2018-11-25T03:17:36.463Z,4.70
2018-11-25T03:20:07.579Z,4.70
2018-11-25T03:22:36.022Z,4.70
2018-11-25T03:25:05.024Z,4.70
2018-11-25T03:27:33.482Z,4.80
2018-11-25T03:30:01.979Z,4.70
2018-11-25T03:32:30.509Z,4.80
2018-11-25T03:34:58.978Z,4.80
2018-11-25T03:37:27.539Z,4.80
2018-11-25T03:39:55.997Z,4.80
2018-11-25T03:42:24.446Z,4.90
2018-11-25T03:44:52.922Z,4.90
2018-11-25T03:47:21.375Z,4.90
2018-11-25T03:49:49.902Z,4.90
2018-11-25T03:52:18.313Z,4.90
2018-11-25T03:54:46.746Z,4.90
2018-11-25T03:57:15.172Z,4.90
2018-11-25T03:59:43.607Z,4.90
2018-11-25T04:02:12.030Z,4.90
2018-11-25T04:04:40.481Z,4.90
2018-11-25T04:07:08.978Z,4.90
2018-11-25T04:09:37.535Z,4.90
2018-11-25T04:12:06.023Z,4.90
2018-11-25T04:14:34.482Z,5.00
2018-11-25T04:17:02.890Z,5.00
2018-11-25T04:19:34.688Z,5.00
2018-11-25T04:22:03.134Z,5.00
2018-11-25T04:24:31.580Z,5.00
2018-11-25T04:27:00.012Z,5.00
2018-11-25T04:29:28.467Z,5.00
2018-11-25T04:31:56.886Z,5.10
2018-11-25T04:34:25.346Z,5.20
2018-11-25T04:36:53.748Z,5.10
2018-11-25T04:39:22.295Z,5.20
2018-11-25T04:41:50.713Z,5.20
2018-11-25T04:44:19.163Z,5.20
2018-11-25T04:46:47.629Z,5.10
2018-11-25T04:49:16.066Z,5.00
2018-11-25T04:51:44.480Z,5.10
2018-11-25T04:54:19.486Z,5.10
2018-11-25T04:56:48.225Z,5.10
2018-11-25T04:59:17.283Z,5.10
2018-11-25T05:01:45.730Z,5.00
2018-11-25T05:04:14.210Z,5.10
2018-11-25T05:06:42.668Z,5.00
2018-11-25T05:09:11.111Z,5.00
2018-11-25T05:11:39.544Z,5.00
2018-11-25T05:14:08.001Z,5.00
2018-11-25T05:16:36.510Z,5.00
2018-11-25T05:19:05.051Z,5.00
2018-11-25T05:21:33.519Z,5.00
2018-11-25T05:24:01.970Z,4.90
2018-11-25T05:26:30.423Z,4.90
2018-11-25T05:28:58.883Z,4.90
2018-11-25T05:31:27.334Z,4.90
2018-11-25T05:33:55.762Z,4.80
2018-11-25T05:36:24.555Z,4.70
2018-11-25T05:38:53.236Z,4.70
2018-11-25T05:41:21.687Z,4.70
2018-11-25T05:43:50.158Z,4.60
2018-11-25T05:46:18.603Z,4.60
2018-11-25T05:48:47.010Z,4.60
2018-11-25T05:51:15.450Z,4.40
2018-11-25T05:53:43.885Z,4.40
2018-11-25T05:56:12.743Z,4.40
2018-11-25T05:58:41.223Z,4.50
2018-11-25T06:01:09.649Z,4.50
2018-11-25T06:03:38.170Z,4.50
2018-11-25T06:06:06.672Z,4.40
2018-11-25T06:08:35.106Z,4.40
2018-11-25T06:11:03.577Z,4.40
2018-11-25T06:13:32.421Z,4.30
2018-11-25T06:16:00.851Z,4.30
2018-11-25T06:18:29.284Z,4.30
2018-11-25T06:20:57.873Z,4.30
2018-11-25T06:23:26.411Z,4.30
2018-11-25T06:25:54.848Z,4.30
2018-11-25T06:28:23.278Z,4.30
2018-11-25T06:30:52.076Z,4.40
2018-11-25T06:33:20.673Z,4.40
2018-11-25T06:35:49.145Z,4.40
2018-11-25T06:38:17.665Z,4.40
2018-11-25T06:40:46.109Z,4.40
2018-11-25T06:43:14.592Z,4.40
2018-11-25T06:45:43.058Z,4.40
2018-11-25T06:48:11.661Z,4.40
2018-11-25T06:50:39.987Z,4.20
2018-11-25T06:53:08.430Z,4.20
2018-11-25T06:55:37.010Z,4.20
2018-11-25T06:58:05.497Z,4.20
2018-11-25T07:00:33.965Z,4.20
2018-11-25T07:03:02.589Z,4.20
2018-11-25T07:05:31.005Z,4.20
2018-11-25T07:08:15.832Z,4.20
2018-11-25T07:10:52.043Z,4.20
2018-11-25T07:13:20.511Z,4.20
2018-11-25T07:18:26.807Z,4.30
2018-11-25T07:20:55.243Z,4.30
2018-11-25T07:23:23.694Z,4.30
2018-11-25T07:25:52.219Z,4.30
2018-11-25T07:28:20.813Z,4.30
2018-11-25T07:30:49.302Z,4.30
2018-11-25T07:33:17.753Z,4.30
2018-11-25T07:35:46.202Z,4.30
2018-11-25T07:38:14.617Z,4.30
2018-11-25T07:40:43.053Z,4.20
2018-11-25T07:43:11.505Z,4.30
2018-11-25T07:45:39.917Z,4.40
2018-11-25T07:48:08.410Z,4.50
2018-11-25T07:50:36.910Z,4.60
2018-11-25T07:53:05.461Z,4.60
2018-11-25T07:55:33.909Z,4.70
2018-11-25T07:58:05.342Z,4.50
2018-11-25T08:00:33.941Z,4.60
2018-11-25T08:03:02.448Z,4.60
2018-11-25T08:05:31.000Z,4.50
2018-11-25T08:08:00.508Z,4.50
2018-11-25T08:10:29.178Z,4.50
2018-11-25T08:12:58.455Z,4.50
2018-11-25T08:15:26.944Z,4.40
2018-11-25T08:17:56.345Z,4.50
2018-11-25T08:20:24.779Z,4.60
2018-11-25T08:22:53.321Z,4.50
2018-11-25T08:25:22.314Z,4.50
2018-11-25T08:27:50.810Z,4.50
2018-11-25T08:30:20.249Z,4.50
2018-11-25T08:32:48.980Z,4.40
2018-11-25T08:35:17.912Z,4.50
2018-11-25T08:37:46.448Z,4.40
2018-11-25T08:40:19.012Z,4.30
2018-11-25T08:42:47.541Z,4.50
2018-11-25T08:45:16.085Z,4.50
2018-11-25T08:47:44.763Z,4.50
2018-11-25T08:50:14.298Z,4.60
2018-11-25T08:52:43.692Z,4.60
2018-11-25T08:55:14.302Z,4.50
2018-11-25T08:57:42.751Z,4.50
2018-11-25T09:00:17.927Z,4.40
2018-11-25T09:02:46.563Z,4.40
2018-11-25T09:05:28.259Z,4.40
2018-11-25T09:07:56.698Z,4.40
2018-11-25T09:10:25.098Z,4.30
2018-11-25T09:13:09.513Z,4.20
2018-11-25T09:15:39.257Z,4.30
2018-11-25T09:18:08.693Z,4.30
2018-11-25T09:20:38.446Z,4.20
2018-11-25T09:23:40.163Z,4.20
2018-11-25T09:26:08.578Z,4.20
2018-11-25T09:28:37.050Z,4.20
2018-11-25T09:31:05.946Z,4.20
2018-11-25T09:33:36.246Z,4.30
2018-11-25T09:36:08.588Z,4.40
2018-11-25T09:39:01.297Z,4.20
2018-11-25T09:41:29.821Z,4.30
2018-11-25T09:43:58.309Z,4.30
2018-11-25T09:46:27.045Z,4.30
2018-11-25T09:48:55.539Z,4.20
2018-11-25T09:51:24.189Z,4.10
2018-11-25T09:53:52.608Z,4.00
2018-11-25T09:56:21.097Z,4.20
2018-11-25T09:58:49.792Z,4.20
2018-11-25T10:01:18.781Z,4.30
2018-11-25T10:03:47.242Z,4.30
2018-11-25T10:06:15.695Z,4.40
2018-11-25T10:08:45.499Z,4.30
2018-11-25T10:11:14.004Z,4.40
2018-11-25T10:13:43.484Z,4.30
2018-11-25T10:16:11.930Z,4.30
2018-11-25T10:18:40.567Z,4.30
2018-11-25T10:21:14.075Z,4.30
2018-11-25T10:23:42.483Z,4.50
2018-11-25T10:26:10.910Z,4.40
2018-11-25T10:28:39.346Z,4.40
2018-11-25T10:31:08.395Z,4.40
2018-11-25T10:33:36.828Z,4.40
2018-11-25T10:36:05.305Z,4.40
2018-11-25T10:38:33.760Z,4.50
2018-11-25T10:41:02.252Z,4.40
2018-11-25T10:43:35.022Z,4.40
2018-11-25T10:46:03.517Z,4.50
2018-11-25T10:48:32.064Z,4.50
2018-11-25T10:51:00.571Z,4.40
2018-11-25T10:53:29.073Z,4.40
2018-11-25T10:55:57.571Z,4.50
2018-11-25T10:58:26.014Z,4.40
2018-11-25T11:00:54.591Z,4.30
2018-11-25T11:03:29.464Z,4.30
2018-11-25T11:06:03.251Z,4.30
2018-11-25T11:08:31.706Z,4.30
2018-11-25T11:11:00.354Z,4.40
2018-11-25T11:13:30.196Z,4.40
2018-11-25T11:15:58.897Z,4.40
2018-11-25T11:18:27.387Z,4.40
2018-11-25T11:20:55.890Z,4.50
2018-11-25T11:23:24.484Z,4.50
2018-11-25T11:25:52.966Z,4.60
2018-11-25T11:28:23.073Z,4.60
2018-11-25T11:30:51.586Z,4.50
2018-11-25T11:33:20.125Z,4.50
2018-11-25T11:35:48.569Z,4.40
2018-11-25T11:38:17.135Z,4.40
2018-11-25T11:40:45.842Z,4.40
2018-11-25T11:43:14.394Z,4.30
2018-11-25T11:45:42.921Z,4.30
2018-11-25T11:48:11.431Z,4.30
2018-11-25T11:50:40.858Z,4.40
2018-11-25T11:53:14.672Z,4.30
2018-11-25T11:55:43.134Z,4.40
2018-11-25T11:58:12.660Z,4.30
2018-11-25T12:00:41.114Z,4.30
2018-11-25T12:03:09.534Z,4.30
2018-11-25T12:05:38.050Z,4.40
2018-11-25T12:08:06.810Z,4.50
2018-11-25T12:10:35.248Z,4.40
2018-11-25T12:13:03.771Z,4.40
2018-11-25T12:15:32.428Z,4.30
2018-11-25T12:18:00.935Z,4.40
2018-11-25T12:20:30.618Z,4.40
2018-11-25T12:23:09.336Z,4.30
2018-11-25T12:25:39.130Z,4.30
2018-11-25T12:28:22.335Z,4.40
2018-11-25T12:31:01.982Z,4.30
2018-11-25T12:33:30.540Z,4.40
2018-11-25T12:35:59.063Z,4.40
2018-11-25T12:38:27.570Z,4.40
2018-11-25T12:40:56.078Z,4.50
2018-11-25T12:43:24.795Z,4.50
2018-11-25T12:45:53.289Z,4.50
2018-11-25T12:48:21.862Z,4.50
2018-11-25T12:50:51.392Z,4.50
2018-11-25T12:53:20.062Z,4.50
2018-11-25T12:55:48.946Z,4.40
2018-11-25T12:58:17.427Z,4.30
2018-11-25T13:00:47.873Z,4.50
2018-11-25T13:03:16.466Z,4.50
2018-11-25T13:05:46.383Z,4.50
2018-11-25T13:08:14.496Z,4.40
2018-11-25T13:10:43.151Z,4.40
2018-11-25T13:13:12.251Z,4.40
2018-11-25T13:15:40.747Z,4.30
2018-11-25T13:18:10.031Z,4.30
2018-11-25T13:20:38.659Z,4.30
2018-11-25T13:23:08.098Z,4.40
2018-11-25T13:25:36.651Z,4.30
2018-11-25T13:28:05.250Z,4.30
2018-11-25T13:30:33.865Z,4.30
2018-11-25T13:33:03.211Z,4.30
2018-11-25T13:35:34.179Z,4.30
2018-11-25T13:38:02.698Z,4.20
2018-11-25T13:40:31.209Z,4.20
2018-11-25T13:43:00.634Z,4.20
2018-11-25T13:45:29.109Z,4.20
2018-11-25T13:47:57.609Z,4.20
2018-11-25T13:50:26.168Z,4.10
2018-11-25T13:52:54.660Z,4.10
2018-11-25T13:55:24.769Z,4.10
2018-11-25T13:57:53.538Z,4.10
2018-11-25T14:00:54.733Z,4.20
2018-11-25T14:03:26.542Z,4.30
2018-11-25T14:05:55.446Z,4.20
2018-11-25T14:08:23.942Z,4.20
2018-11-25T14:11:12.975Z,4.30
2018-11-25T14:13:41.519Z,4.20
2018-11-25T14:16:12.226Z,4.20
2018-11-25T14:18:42.304Z,4.30
2018-11-25T14:21:10.815Z,4.30
2018-11-25T14:23:39.447Z,4.20
2018-11-25T14:26:23.515Z,4.20
2018-11-25T14:28:52.051Z,4.30
2018-11-25T14:31:20.627Z,4.20
2018-11-25T14:33:49.202Z,4.10
2018-11-25T14:36:17.715Z,4.20
2018-11-25T14:38:46.216Z,4.10
2018-11-25T14:41:14.674Z,4.00
2018-11-25T14:43:43.160Z,4.00
2018-11-25T14:46:11.638Z,4.10
2018-11-25T14:48:40.953Z,4.10
2018-11-25T14:51:12.248Z,4.10
2018-11-25T14:53:40.819Z,4.10
2018-11-25T14:56:09.437Z,4.20
2018-11-25T14:58:38.078Z,4.20
2018-11-25T15:01:06.728Z,4.20
2018-11-25T15:03:35.221Z,4.10
2018-11-25T15:06:03.797Z,4.00
2018-11-25T15:08:32.449Z,4.10
2018-11-25T15:11:00.996Z,4.10
2018-11-25T15:13:29.511Z,4.10
2018-11-25T15:15:59.582Z,4.10
2018-11-25T15:18:28.033Z,4.20
2018-11-25T15:20:56.743Z,4.10
2018-11-25T15:23:25.463Z,4.10
2018-11-25T15:25:55.198Z,4.10
2018-11-25T15:28:23.670Z,4.20
2018-11-25T15:30:52.704Z,4.10
2018-11-25T15:33:23.320Z,4.10
2018-11-25T15:35:51.860Z,4.20
2018-11-25T15:38:21.486Z,4.10
2018-11-25T15:40:49.999Z,4.10
2018-11-25T15:43:18.544Z,4.10
2018-11-25T15:45:47.128Z,4.10
2018-11-25T15:48:27.206Z,4.20
2018-11-25T15:50:55.736Z,4.10
2018-11-25T15:53:24.240Z,4.20
2018-11-25T15:55:55.436Z,4.30
2018-11-25T15:58:24.763Z,4.30
2018-11-25T16:00:53.374Z,4.20
2018-11-25T16:03:21.945Z,4.30
2018-11-25T16:06:00.010Z,4.20
2018-11-25T16:08:28.548Z,4.30
2018-11-25T16:10:57.227Z,4.30
2018-11-25T16:13:26.391Z,4.20
2018-11-25T16:15:58.214Z,4.20
2018-11-25T16:18:26.790Z,4.20
2018-11-25T16:20:55.286Z,4.20
2018-11-25T16:23:23.754Z,4.30
2018-11-25T16:25:54.106Z,4.20
2018-11-25T16:28:28.403Z,4.10
2018-11-25T16:30:56.915Z,4.10
2018-11-25T16:33:25.475Z,4.10
2018-11-25T16:35:53.969Z,4.10
2018-11-25T16:38:22.498Z,4.10
2018-11-25T16:40:51.327Z,4.10
2018-11-25T16:43:19.833Z,4.10
2018-11-25T16:45:48.375Z,4.10
2018-11-25T16:48:16.940Z,4.10
2018-11-25T16:50:45.450Z,4.20
2018-11-25T16:53:13.938Z,4.10
2018-11-25T16:55:42.542Z,4.20
2018-11-25T16:58:11.033Z,4.20
2018-11-25T17:00:39.560Z,4.20
2018-11-25T17:03:08.204Z,4.20
2018-11-25T17:05:38.827Z,4.20
2018-11-25T17:08:27.092Z,4.30
2018-11-25T17:10:55.634Z,4.40
2018-11-25T17:13:24.103Z,4.30
2018-11-25T17:15:52.610Z,4.40
2018-11-25T17:18:21.140Z,4.40
2018-11-25T17:20:49.670Z,4.40
2018-11-25T17:23:18.162Z,4.40
2018-11-25T17:25:47.390Z,4.50
2018-11-25T17:28:15.913Z,4.60
2018-11-25T17:30:44.619Z,4.50
2018-11-25T17:33:13.233Z,4.50
2018-11-25T17:35:41.769Z,4.50
2018-11-25T17:38:10.266Z,4.50
2018-11-25T17:40:38.876Z,4.40
2018-11-25T17:43:12.413Z,4.40
2018-11-25T17:45:40.967Z,4.40
2018-11-25T17:48:09.463Z,4.40
2018-11-25T17:50:37.966Z,4.30
2018-11-25T17:53:07.079Z,4.40
2018-11-25T17:55:35.625Z,4.30
2018-11-25T17:58:04.218Z,4.30
2018-11-25T18:00:38.088Z,4.30
2018-11-25T18:03:10.012Z,4.30
2018-11-25T18:05:38.996Z,4.30
2018-11-25T18:08:07.175Z,4.20
2018-11-25T18:10:35.777Z,4.20
2018-11-25T18:13:05.926Z,4.20
2018-11-25T18:15:34.490Z,4.40
2018-11-25T18:18:05.758Z,4.40
2018-11-25T18:20:39.705Z,4.40
2018-11-25T18:23:08.962Z,4.50
2018-11-25T18:25:37.411Z,4.40
2018-11-25T18:28:06.026Z,4.30
2018-11-25T18:30:34.527Z,4.40
2018-11-25T18:33:03.228Z,4.40
2018-11-25T18:35:31.754Z,4.30
2018-11-25T18:38:00.359Z,4.30
2018-11-25T18:40:28.928Z,4.30
2018-11-25T18:42:58.321Z,4.30
2018-11-25T18:45:26.814Z,4.30
2018-11-25T18:47:55.391Z,4.30
2018-11-25T18:50:23.924Z,4.30
2018-11-25T18:52:53.851Z,4.30
2018-11-25T18:55:21.193Z,4.40
2018-11-25T18:57:49.810Z,4.20
2018-11-25T19:00:26.171Z,4.30
2018-11-25T19:02:54.702Z,4.30
2018-11-25T19:05:24.055Z,4.30
2018-11-25T19:07:51.806Z,4.20
2018-11-25T19:10:20.400Z,4.20
2018-11-25T19:12:49.931Z,4.20
2018-11-25T19:15:19.420Z,4.20
2018-11-25T19:17:50.436Z,4.20
2018-11-25T19:20:30.096Z,4.10
2018-11-25T19:22:59.388Z,4.10
2018-11-25T19:25:27.906Z,4.10
2018-11-25T19:27:57.224Z,4.10
2018-11-25T19:30:26.792Z,4.20
2018-11-25T19:32:54.322Z,4.30
2018-11-25T19:35:23.346Z,4.20
2018-11-25T19:37:52.488Z,4.20
2018-11-25T19:40:26.018Z,4.20
2018-11-25T19:42:54.636Z,4.20
2018-11-25T19:45:24.415Z,4.30
2018-11-25T19:47:54.925Z,4.20
2018-11-25T19:50:27.051Z,4.20
2018-11-25T19:52:55.534Z,4.10
2018-11-25T19:55:24.025Z,4.10
2018-11-25T19:57:52.482Z,4.30
2018-11-25T20:00:22.390Z,4.20
2018-11-25T20:02:51.023Z,4.10
2018-11-25T20:05:19.597Z,4.10
2018-11-25T20:07:48.252Z,4.10
2018-11-25T20:10:19.425Z,4.10
2018-11-25T20:12:52.269Z,4.10
2018-11-25T20:15:21.049Z,4.10
2018-11-25T20:17:54.600Z,4.10
2018-11-25T20:20:19.507Z,4.20
2018-11-25T20:22:48.378Z,4.10
2018-11-25T20:25:17.341Z,4.10
2018-11-25T20:27:50.080Z,4.10
2018-11-25T20:30:21.691Z,4.10
2018-11-25T20:32:58.579Z,4.20
2018-11-25T20:35:27.611Z,4.10
2018-11-25T20:38:02.126Z,4.00
2018-11-25T20:40:34.868Z,4.10
2018-11-25T20:43:03.497Z,4.00
2018-11-25T20:45:39.160Z,4.00
2018-11-25T20:48:06.014Z,4.10
2018-11-25T20:50:34.515Z,4.10
2018-11-25T20:53:10.716Z,4.10
2018-11-25T20:55:39.256Z,4.00
2018-11-25T20:58:08.903Z,3.90
2018-11-25T21:00:38.214Z,4.00
2018-11-25T21:03:08.742Z,4.10
2018-11-25T21:05:37.283Z,4.10
2018-11-25T21:08:06.791Z,4.00
2018-11-25T21:10:35.281Z,4.00
2018-11-25T21:13:03.815Z,4.00
2018-11-25T21:15:32.296Z,4.00
2018-11-25T21:18:00.816Z,4.10
2018-11-25T21:20:29.266Z,4.10
2018-11-25T21:22:57.735Z,4.10
2018-11-25T21:25:26.220Z,4.00
2018-11-25T21:27:54.701Z,4.00
2018-11-25T21:30:25.419Z,4.00
2018-11-25T21:32:55.256Z,3.90
2018-11-25T21:35:23.737Z,3.90
2018-11-25T21:37:52.229Z,4.10
2018-11-25T21:40:22.131Z,4.10
2018-11-25T21:42:50.687Z,4.00
2018-11-25T21:45:20.748Z,4.00
2018-11-25T21:47:49.439Z,4.00
2018-11-25T21:50:21.566Z,4.10
2018-11-25T21:52:50.070Z,4.10
2018-11-25T21:55:18.877Z,4.20
2018-11-25T21:57:47.414Z,4.20
2018-11-25T22:00:17.926Z,4.20
2018-11-25T22:02:46.709Z,4.20
2018-11-25T22:05:15.561Z,4.20
2018-11-25T22:07:44.122Z,4.30
2018-11-25T22:10:13.948Z,4.20
2018-11-25T22:12:42.826Z,4.30
2018-11-25T22:15:14.308Z,4.30
2018-11-25T22:17:42.917Z,4.30
2018-11-25T22:20:12.457Z,4.40
2018-11-25T22:22:40.946Z,4.30
2018-11-25T22:25:12.625Z,4.30
2018-11-25T22:27:41.116Z,4.30
2018-11-25T22:30:11.447Z,4.20
2018-11-25T22:32:39.934Z,4.10
2018-11-25T22:35:12.698Z,4.20
2018-11-25T22:37:42.068Z,4.20
2018-11-25T22:40:10.915Z,4.20
2018-11-25T22:42:40.163Z,4.20
2018-11-25T22:45:10.929Z,4.30
2018-11-25T22:47:39.454Z,4.30
2018-11-25T22:50:12.405Z,4.30
2018-11-25T22:52:40.922Z,4.40
2018-11-25T22:55:13.859Z,4.30
2018-11-25T22:57:42.402Z,4.30
2018-11-25T23:00:23.747Z,4.40
2018-11-25T23:02:52.197Z,4.30
2018-11-25T23:05:31.861Z,4.30
2018-11-25T23:08:00.383Z,4.30
2018-11-25T23:10:28.909Z,4.40
2018-11-25T23:12:57.459Z,4.40
2018-11-25T23:15:25.944Z,4.40
2018-11-25T23:17:54.390Z,4.50
2018-11-25T23:20:22.885Z,4.40
2018-11-25T23:22:51.662Z,4.40
2018-11-25T23:25:20.178Z,4.40
2018-11-25T23:27:48.639Z,4.40
2018-11-25T23:30:17.142Z,4.40
2018-11-25T23:32:45.612Z,4.30
2018-11-25T23:35:18.730Z,4.30
2018-11-25T23:37:47.174Z,4.30
2018-11-25T23:40:15.661Z,4.30
2018-11-25T23:42:44.203Z,4.20
2018-11-25T23:45:13.973Z,4.20
2018-11-25T23:47:42.539Z,4.20
2018-11-25T23:50:12.022Z,4.20
2018-11-25T23:52:41.037Z,4.20
2018-11-25T23:55:11.611Z,4.20
2018-11-25T23:57:40.324Z,4.20
